sensor_id;sensor_type;location;lat;lon;timestamp;P1;durP1;ratioP1;P2;durP2;ratioP2
37529;SDS011;23374;52.758;6.872;2023-03-01T00:02:05;14.37;;;6.73;;
37529;SDS011;23374;52.758;6.872;2023-03-01T00:05:01;13.13;;;7.33;;
37529;SDS011;23374;52.758;6.872;2023-03-01T00:07:25;12.93;;;6.60;;
37529;SDS011;23374;52.758;6.872;2023-03-01T00:09:46;10.30;;;6.03;;
37529;SDS011;23374;52.758;6.872;2023-03-01T00:12:06;12.13;;;6.43;;
37529;SDS011;23374;52.758;6.872;2023-03-01T00:14:27;12.00;;;6.17;;
37529;SDS011;23374;52.758;6.872;2023-03-01T00:16:48;13.43;;;7.10;;
37529;SDS011;23374;52.758;6.872;2023-03-01T00:19:13;10.67;;;6.33;;
37529;SDS011;23374;52.758;6.872;2023-03-01T00:21:37;13.57;;;7.33;;
37529;SDS011;23374;52.758;6.872;2023-03-01T00:23:59;10.37;;;6.87;;
37529;SDS011;23374;52.758;6.872;2023-03-01T00:26:21;18.83;;;7.60;;
37529;SDS011;23374;52.758;6.872;2023-03-01T00:28:44;15.53;;;7.07;;
37529;SDS011;23374;52.758;6.872;2023-03-01T00:31:24;13.83;;;6.57;;
37529;SDS011;23374;52.758;6.872;2023-03-01T00:33:54;13.03;;;7.20;;
37529;SDS011;23374;52.758;6.872;2023-03-01T00:36:17;13.90;;;6.60;;
37529;SDS011;23374;52.758;6.872;2023-03-01T00:38:49;10.93;;;6.83;;
37529;SDS011;23374;52.758;6.872;2023-03-01T00:41:12;15.10;;;7.30;;
37529;SDS011;23374;52.758;6.872;2023-03-01T00:43:35;14.57;;;7.33;;
37529;SDS011;23374;52.758;6.872;2023-03-01T00:46:01;14.20;;;7.00;;
37529;SDS011;23374;52.758;6.872;2023-03-01T00:48:32;14.17;;;7.37;;
37529;SDS011;23374;52.758;6.872;2023-03-01T00:50:53;12.40;;;7.13;;
37529;SDS011;23374;52.758;6.872;2023-03-01T00:53:14;14.10;;;8.07;;
37529;SDS011;23374;52.758;6.872;2023-03-01T00:55:35;12.40;;;6.80;;
37529;SDS011;23374;52.758;6.872;2023-03-01T00:57:58;16.10;;;7.97;;
37529;SDS011;23374;52.758;6.872;2023-03-01T01:00:19;15.97;;;7.77;;
37529;SDS011;23374;52.758;6.872;2023-03-01T01:02:40;12.80;;;7.87;;
37529;SDS011;23374;52.758;6.872;2023-03-01T01:05:03;14.80;;;6.77;;
37529;SDS011;23374;52.758;6.872;2023-03-01T01:07:25;12.67;;;6.57;;
37529;SDS011;23374;52.758;6.872;2023-03-01T01:09:46;15.87;;;7.27;;
37529;SDS011;23374;52.758;6.872;2023-03-01T01:12:08;13.67;;;7.63;;
37529;SDS011;23374;52.758;6.872;2023-03-01T01:14:28;13.63;;;7.93;;
37529;SDS011;23374;52.758;6.872;2023-03-01T01:16:50;12.43;;;6.97;;
37529;SDS011;23374;52.758;6.872;2023-03-01T01:19:15;13.07;;;7.17;;
37529;SDS011;23374;52.758;6.872;2023-03-01T01:21:39;14.43;;;7.23;;
37529;SDS011;23374;52.758;6.872;2023-03-01T01:24:03;14.10;;;7.87;;
37529;SDS011;23374;52.758;6.872;2023-03-01T01:26:28;15.50;;;8.07;;
37529;SDS011;23374;52.758;6.872;2023-03-01T01:28:51;13.90;;;7.50;;
37529;SDS011;23374;52.758;6.872;2023-03-01T01:31:12;19.40;;;8.23;;
37529;SDS011;23374;52.758;6.872;2023-03-01T01:33:34;14.43;;;7.20;;
37529;SDS011;23374;52.758;6.872;2023-03-01T01:35:56;14.70;;;7.73;;
37529;SDS011;23374;52.758;6.872;2023-03-01T01:38:17;14.63;;;7.27;;
37529;SDS011;23374;52.758;6.872;2023-03-01T01:40:48;15.00;;;7.40;;
37529;SDS011;23374;52.758;6.872;2023-03-01T01:43:30;13.33;;;7.43;;
37529;SDS011;23374;52.758;6.872;2023-03-01T01:46:41;11.50;;;6.30;;
37529;SDS011;23374;52.758;6.872;2023-03-01T01:52:33;15.30;;;7.87;;
37529;SDS011;23374;52.758;6.872;2023-03-01T01:55:10;15.73;;;8.40;;
37529;SDS011;23374;52.758;6.872;2023-03-01T01:57:37;18.13;;;8.87;;
37529;SDS011;23374;52.758;6.872;2023-03-01T02:00:11;14.60;;;7.60;;
37529;SDS011;23374;52.758;6.872;2023-03-01T02:02:38;14.23;;;7.60;;
37529;SDS011;23374;52.758;6.872;2023-03-01T02:05:11;17.93;;;7.83;;
37529;SDS011;23374;52.758;6.872;2023-03-01T02:09:13;12.77;;;6.87;;
37529;SDS011;23374;52.758;6.872;2023-03-01T02:11:35;14.57;;;7.60;;
37529;SDS011;23374;52.758;6.872;2023-03-01T02:13:58;18.70;;;7.93;;
37529;SDS011;23374;52.758;6.872;2023-03-01T02:16:19;16.80;;;7.97;;
37529;SDS011;23374;52.758;6.872;2023-03-01T02:18:40;15.73;;;7.97;;
37529;SDS011;23374;52.758;6.872;2023-03-01T02:26:32;11.93;;;6.63;;
37529;SDS011;23374;52.758;6.872;2023-03-01T02:29:02;19.13;;;7.57;;
37529;SDS011;23374;52.758;6.872;2023-03-01T02:31:29;12.70;;;7.73;;
37529;SDS011;23374;52.758;6.872;2023-03-01T02:34:02;13.87;;;6.57;;
37529;SDS011;23374;52.758;6.872;2023-03-01T02:36:30;13.73;;;6.97;;
37529;SDS011;23374;52.758;6.872;2023-03-01T02:38:58;13.33;;;7.33;;
37529;SDS011;23374;52.758;6.872;2023-03-01T02:41:21;15.50;;;8.13;;
37529;SDS011;23374;52.758;6.872;2023-03-01T02:43:44;16.03;;;7.23;;
37529;SDS011;23374;52.758;6.872;2023-03-01T02:46:18;20.10;;;8.33;;
37529;SDS011;23374;52.758;6.872;2023-03-01T02:48:50;17.17;;;8.23;;
37529;SDS011;23374;52.758;6.872;2023-03-01T02:52:47;11.33;;;6.90;;
37529;SDS011;23374;52.758;6.872;2023-03-01T02:55:29;15.47;;;7.50;;
37529;SDS011;23374;52.758;6.872;2023-03-01T02:57:50;10.93;;;6.57;;
37529;SDS011;23374;52.758;6.872;2023-03-01T03:00:13;10.73;;;6.30;;
37529;SDS011;23374;52.758;6.872;2023-03-01T03:02:39;14.07;;;6.60;;
37529;SDS011;23374;52.758;6.872;2023-03-01T03:04:59;14.23;;;7.93;;
37529;SDS011;23374;52.758;6.872;2023-03-01T03:07:20;14.43;;;7.77;;
37529;SDS011;23374;52.758;6.872;2023-03-01T03:09:40;16.97;;;8.47;;
37529;SDS011;23374;52.758;6.872;2023-03-01T03:12:01;12.13;;;7.17;;
37529;SDS011;23374;52.758;6.872;2023-03-01T03:14:21;16.47;;;7.23;;
37529;SDS011;23374;52.758;6.872;2023-03-01T03:16:42;13.03;;;7.53;;
37529;SDS011;23374;52.758;6.872;2023-03-01T03:19:05;15.10;;;7.07;;
37529;SDS011;23374;52.758;6.872;2023-03-01T03:21:26;14.73;;;6.70;;
37529;SDS011;23374;52.758;6.872;2023-03-01T03:23:47;13.50;;;7.13;;
37529;SDS011;23374;52.758;6.872;2023-03-01T03:26:07;15.10;;;7.60;;
37529;SDS011;23374;52.758;6.872;2023-03-01T03:28:27;14.73;;;7.63;;
37529;SDS011;23374;52.758;6.872;2023-03-01T03:30:48;14.40;;;7.10;;
37529;SDS011;23374;52.758;6.872;2023-03-01T03:33:10;13.80;;;7.43;;
37529;SDS011;23374;52.758;6.872;2023-03-01T03:35:34;12.27;;;6.97;;
37529;SDS011;23374;52.758;6.872;2023-03-01T03:38:06;15.53;;;8.33;;
37529;SDS011;23374;52.758;6.872;2023-03-01T03:40:38;15.40;;;7.40;;
37529;SDS011;23374;52.758;6.872;2023-03-01T03:43:01;13.27;;;7.37;;
37529;SDS011;23374;52.758;6.872;2023-03-01T03:45:28;14.80;;;8.10;;
37529;SDS011;23374;52.758;6.872;2023-03-01T03:47:49;13.60;;;7.50;;
37529;SDS011;23374;52.758;6.872;2023-03-01T03:50:12;18.23;;;7.97;;
37529;SDS011;23374;52.758;6.872;2023-03-01T03:52:34;15.87;;;7.10;;
37529;SDS011;23374;52.758;6.872;2023-03-01T03:54:54;15.40;;;8.13;;
37529;SDS011;23374;52.758;6.872;2023-03-01T03:57:17;11.37;;;7.20;;
37529;SDS011;23374;52.758;6.872;2023-03-01T03:59:37;13.37;;;7.23;;
37529;SDS011;23374;52.758;6.872;2023-03-01T04:01:59;15.90;;;7.17;;
37529;SDS011;23374;52.758;6.872;2023-03-01T04:04:19;14.03;;;7.30;;
37529;SDS011;23374;52.758;6.872;2023-03-01T04:06:40;16.20;;;7.43;;
37529;SDS011;23374;52.758;6.872;2023-03-01T04:09:01;16.27;;;8.47;;
37529;SDS011;23374;52.758;6.872;2023-03-01T04:11:22;14.13;;;7.53;;
37529;SDS011;23374;52.758;6.872;2023-03-01T04:13:46;16.73;;;7.77;;
37529;SDS011;23374;52.758;6.872;2023-03-01T04:16:07;14.40;;;8.47;;
37529;SDS011;23374;52.758;6.872;2023-03-01T04:18:28;16.23;;;8.03;;
37529;SDS011;23374;52.758;6.872;2023-03-01T04:20:50;13.10;;;7.37;;
37529;SDS011;23374;52.758;6.872;2023-03-01T04:23:19;13.63;;;7.20;;
37529;SDS011;23374;52.758;6.872;2023-03-01T04:25:45;18.23;;;7.93;;
37529;SDS011;23374;52.758;6.872;2023-03-01T04:28:14;13.57;;;7.37;;
37529;SDS011;23374;52.758;6.872;2023-03-01T04:30:38;14.80;;;7.27;;
37529;SDS011;23374;52.758;6.872;2023-03-01T04:33:05;14.67;;;7.47;;
37529;SDS011;23374;52.758;6.872;2023-03-01T04:35:28;15.60;;;7.50;;
37529;SDS011;23374;52.758;6.872;2023-03-01T04:37:50;15.97;;;7.60;;
37529;SDS011;23374;52.758;6.872;2023-03-01T04:40:11;15.80;;;8.27;;
37529;SDS011;23374;52.758;6.872;2023-03-01T04:42:40;14.70;;;8.27;;
37529;SDS011;23374;52.758;6.872;2023-03-01T04:45:01;14.50;;;8.57;;
37529;SDS011;23374;52.758;6.872;2023-03-01T04:47:21;13.47;;;7.10;;
37529;SDS011;23374;52.758;6.872;2023-03-01T04:49:42;15.43;;;7.37;;
37529;SDS011;23374;52.758;6.872;2023-03-01T04:52:03;14.07;;;7.93;;
37529;SDS011;23374;52.758;6.872;2023-03-01T04:54:26;14.00;;;8.00;;
37529;SDS011;23374;52.758;6.872;2023-03-01T04:56:44;18.10;;;8.43;;
37529;SDS011;23374;52.758;6.872;2023-03-01T04:59:04;18.77;;;8.17;;
37529;SDS011;23374;52.758;6.872;2023-03-01T05:01:25;21.77;;;10.53;;
37529;SDS011;23374;52.758;6.872;2023-03-01T05:03:51;24.60;;;10.43;;
37529;SDS011;23374;52.758;6.872;2023-03-01T05:06:12;25.93;;;11.00;;
37529;SDS011;23374;52.758;6.872;2023-03-01T05:08:38;22.60;;;12.03;;
37529;SDS011;23374;52.758;6.872;2023-03-01T05:10:59;23.87;;;12.40;;
37529;SDS011;23374;52.758;6.872;2023-03-01T05:13:20;27.50;;;12.33;;
37529;SDS011;23374;52.758;6.872;2023-03-01T05:15:42;29.80;;;13.47;;
37529;SDS011;23374;52.758;6.872;2023-03-01T05:18:02;30.43;;;13.63;;
37529;SDS011;23374;52.758;6.872;2023-03-01T05:20:23;27.00;;;13.03;;
37529;SDS011;23374;52.758;6.872;2023-03-01T05:22:46;28.10;;;12.33;;
37529;SDS011;23374;52.758;6.872;2023-03-01T05:25:11;30.27;;;14.17;;
37529;SDS011;23374;52.758;6.872;2023-03-01T05:27:35;29.93;;;13.47;;
37529;SDS011;23374;52.758;6.872;2023-03-01T05:29:56;28.73;;;11.47;;
37529;SDS011;23374;52.758;6.872;2023-03-01T05:32:16;30.30;;;11.70;;
37529;SDS011;23374;52.758;6.872;2023-03-01T05:34:37;33.40;;;14.23;;
37529;SDS011;23374;52.758;6.872;2023-03-01T05:36:58;25.47;;;12.37;;
37529;SDS011;23374;52.758;6.872;2023-03-01T05:39:21;26.30;;;11.97;;
37529;SDS011;23374;52.758;6.872;2023-03-01T05:41:42;27.73;;;11.77;;
37529;SDS011;23374;52.758;6.872;2023-03-01T05:44:06;26.40;;;12.10;;
37529;SDS011;23374;52.758;6.872;2023-03-01T05:46:26;20.60;;;10.57;;
37529;SDS011;23374;52.758;6.872;2023-03-01T05:48:50;24.43;;;10.77;;
37529;SDS011;23374;52.758;6.872;2023-03-01T05:51:12;23.57;;;11.47;;
37529;SDS011;23374;52.758;6.872;2023-03-01T05:53:32;24.97;;;12.07;;
37529;SDS011;23374;52.758;6.872;2023-03-01T05:55:52;21.23;;;10.53;;
37529;SDS011;23374;52.758;6.872;2023-03-01T05:58:15;19.90;;;10.43;;
37529;SDS011;23374;52.758;6.872;2023-03-01T06:00:38;21.70;;;10.63;;
37529;SDS011;23374;52.758;6.872;2023-03-01T06:03:01;20.50;;;10.90;;
37529;SDS011;23374;52.758;6.872;2023-03-01T06:05:22;24.70;;;10.87;;
37529;SDS011;23374;52.758;6.872;2023-03-01T06:07:44;23.07;;;10.10;;
37529;SDS011;23374;52.758;6.872;2023-03-01T06:10:05;26.57;;;10.03;;
37529;SDS011;23374;52.758;6.872;2023-03-01T06:12:34;21.33;;;10.23;;
37529;SDS011;23374;52.758;6.872;2023-03-01T06:14:56;23.97;;;9.23;;
37529;SDS011;23374;52.758;6.872;2023-03-01T06:17:16;22.70;;;9.77;;
37529;SDS011;23374;52.758;6.872;2023-03-01T06:19:37;21.17;;;9.63;;
37529;SDS011;23374;52.758;6.872;2023-03-01T06:21:58;22.77;;;10.77;;
37529;SDS011;23374;52.758;6.872;2023-03-01T06:24:18;19.97;;;9.10;;
37529;SDS011;23374;52.758;6.872;2023-03-01T06:26:38;23.03;;;11.47;;
37529;SDS011;23374;52.758;6.872;2023-03-01T06:29:00;27.90;;;11.33;;
37529;SDS011;23374;52.758;6.872;2023-03-01T06:31:21;22.97;;;10.57;;
37529;SDS011;23374;52.758;6.872;2023-03-01T06:33:57;22.70;;;10.30;;
37529;SDS011;23374;52.758;6.872;2023-03-01T06:36:18;19.43;;;10.17;;
37529;SDS011;23374;52.758;6.872;2023-03-01T06:38:40;18.57;;;10.50;;
37529;SDS011;23374;52.758;6.872;2023-03-01T06:41:01;23.47;;;10.40;;
37529;SDS011;23374;52.758;6.872;2023-03-01T06:43:24;20.73;;;10.30;;
37529;SDS011;23374;52.758;6.872;2023-03-01T06:45:44;20.27;;;9.87;;
37529;SDS011;23374;52.758;6.872;2023-03-01T06:48:07;21.57;;;10.03;;
37529;SDS011;23374;52.758;6.872;2023-03-01T06:50:28;19.70;;;10.30;;
37529;SDS011;23374;52.758;6.872;2023-03-01T06:52:48;21.00;;;9.60;;
37529;SDS011;23374;52.758;6.872;2023-03-01T06:55:14;20.83;;;10.03;;
37529;SDS011;23374;52.758;6.872;2023-03-01T06:57:35;19.00;;;9.67;;
37529;SDS011;23374;52.758;6.872;2023-03-01T06:59:55;20.20;;;9.90;;
37529;SDS011;23374;52.758;6.872;2023-03-01T07:02:16;18.73;;;9.63;;
37529;SDS011;23374;52.758;6.872;2023-03-01T07:04:38;21.07;;;10.30;;
37529;SDS011;23374;52.758;6.872;2023-03-01T07:07:00;22.77;;;10.83;;
37529;SDS011;23374;52.758;6.872;2023-03-01T07:09:22;18.30;;;10.33;;
37529;SDS011;23374;52.758;6.872;2023-03-01T07:11:43;20.30;;;9.57;;
37529;SDS011;23374;52.758;6.872;2023-03-01T07:14:04;21.03;;;10.83;;
37529;SDS011;23374;52.758;6.872;2023-03-01T07:16:28;20.77;;;10.77;;
37529;SDS011;23374;52.758;6.872;2023-03-01T07:18:45;24.73;;;11.37;;
37529;SDS011;23374;52.758;6.872;2023-03-01T07:21:08;19.50;;;10.50;;
37529;SDS011;23374;52.758;6.872;2023-03-01T07:23:32;22.37;;;11.17;;
37529;SDS011;23374;52.758;6.872;2023-03-01T07:25:56;20.40;;;9.83;;
37529;SDS011;23374;52.758;6.872;2023-03-01T07:28:16;20.20;;;10.93;;
37529;SDS011;23374;52.758;6.872;2023-03-01T07:30:36;19.03;;;10.87;;
37529;SDS011;23374;52.758;6.872;2023-03-01T07:32:57;19.60;;;10.70;;
37529;SDS011;23374;52.758;6.872;2023-03-01T07:35:19;21.83;;;11.10;;
37529;SDS011;23374;52.758;6.872;2023-03-01T07:37:39;19.77;;;9.90;;
37529;SDS011;23374;52.758;6.872;2023-03-01T07:40:01;22.57;;;11.33;;
37529;SDS011;23374;52.758;6.872;2023-03-01T07:42:22;18.80;;;11.17;;
37529;SDS011;23374;52.758;6.872;2023-03-01T07:44:59;25.17;;;12.33;;
37529;SDS011;23374;52.758;6.872;2023-03-01T07:47:19;24.60;;;11.63;;
37529;SDS011;23374;52.758;6.872;2023-03-01T07:49:39;22.87;;;12.20;;
37529;SDS011;23374;52.758;6.872;2023-03-01T07:52:01;21.13;;;11.70;;
37529;SDS011;23374;52.758;6.872;2023-03-01T07:54:22;26.40;;;12.80;;
37529;SDS011;23374;52.758;6.872;2023-03-01T07:56:43;28.43;;;11.80;;
37529;SDS011;23374;52.758;6.872;2023-03-01T07:59:04;20.93;;;11.90;;
37529;SDS011;23374;52.758;6.872;2023-03-01T08:01:25;20.43;;;10.80;;
37529;SDS011;23374;52.758;6.872;2023-03-01T08:04:01;21.80;;;10.90;;
37529;SDS011;23374;52.758;6.872;2023-03-01T08:06:22;19.00;;;10.60;;
37529;SDS011;23374;52.758;6.872;2023-03-01T08:08:42;24.67;;;11.30;;
37529;SDS011;23374;52.758;6.872;2023-03-01T08:11:04;20.87;;;10.47;;
37529;SDS011;23374;52.758;6.872;2023-03-01T08:13:29;18.73;;;10.77;;
37529;SDS011;23374;52.758;6.872;2023-03-01T08:15:51;22.73;;;10.40;;
37529;SDS011;23374;52.758;6.872;2023-03-01T08:18:12;15.30;;;9.93;;
37529;SDS011;23374;52.758;6.872;2023-03-01T08:20:33;18.90;;;10.60;;
37529;SDS011;23374;52.758;6.872;2023-03-01T08:22:54;15.70;;;10.00;;
37529;SDS011;23374;52.758;6.872;2023-03-01T08:25:14;17.47;;;10.03;;
37529;SDS011;23374;52.758;6.872;2023-03-01T08:27:35;15.83;;;8.63;;
37529;SDS011;23374;52.758;6.872;2023-03-01T08:29:55;19.47;;;8.80;;
37529;SDS011;23374;52.758;6.872;2023-03-01T08:32:16;18.10;;;8.87;;
37529;SDS011;23374;52.758;6.872;2023-03-01T08:34:37;14.97;;;8.07;;
37529;SDS011;23374;52.758;6.872;2023-03-01T08:36:57;16.17;;;8.47;;
37529;SDS011;23374;52.758;6.872;2023-03-01T08:39:19;14.23;;;6.80;;
37529;SDS011;23374;52.758;6.872;2023-03-01T08:41:40;11.70;;;6.93;;
37529;SDS011;23374;52.758;6.872;2023-03-01T08:44:00;11.70;;;6.40;;
37529;SDS011;23374;52.758;6.872;2023-03-01T08:46:22;10.50;;;5.87;;
37529;SDS011;23374;52.758;6.872;2023-03-01T08:48:48;6.87;;;4.80;;
37529;SDS011;23374;52.758;6.872;2023-03-01T08:51:16;9.33;;;5.33;;
37529;SDS011;23374;52.758;6.872;2023-03-01T08:53:37;10.53;;;5.43;;
37529;SDS011;23374;52.758;6.872;2023-03-01T08:55:54;7.90;;;4.83;;
37529;SDS011;23374;52.758;6.872;2023-03-01T08:58:14;7.97;;;4.23;;
37529;SDS011;23374;52.758;6.872;2023-03-01T09:00:35;9.50;;;4.73;;
37529;SDS011;23374;52.758;6.872;2023-03-01T09:02:55;9.70;;;4.83;;
37529;SDS011;23374;52.758;6.872;2023-03-01T09:05:17;8.43;;;5.03;;
37529;SDS011;23374;52.758;6.872;2023-03-01T09:07:37;7.90;;;4.60;;
37529;SDS011;23374;52.758;6.872;2023-03-01T09:10:01;9.17;;;3.87;;
37529;SDS011;23374;52.758;6.872;2023-03-01T09:12:23;6.33;;;2.87;;
37529;SDS011;23374;52.758;6.872;2023-03-01T09:14:45;7.30;;;3.93;;
37529;SDS011;23374;52.758;6.872;2023-03-01T09:17:08;7.30;;;3.53;;
37529;SDS011;23374;52.758;6.872;2023-03-01T09:19:30;6.53;;;3.17;;
37529;SDS011;23374;52.758;6.872;2023-03-01T09:21:51;4.93;;;3.13;;
37529;SDS011;23374;52.758;6.872;2023-03-01T09:24:16;6.20;;;3.17;;
37529;SDS011;23374;52.758;6.872;2023-03-01T09:26:38;6.80;;;3.20;;
37529;SDS011;23374;52.758;6.872;2023-03-01T09:28:57;5.17;;;2.27;;
37529;SDS011;23374;52.758;6.872;2023-03-01T09:31:19;5.47;;;3.07;;
37529;SDS011;23374;52.758;6.872;2023-03-01T09:33:48;6.37;;;2.60;;
37529;SDS011;23374;52.758;6.872;2023-03-01T09:36:12;5.23;;;2.20;;
37529;SDS011;23374;52.758;6.872;2023-03-01T09:38:39;4.57;;;2.20;;
37529;SDS011;23374;52.758;6.872;2023-03-01T09:40:57;5.33;;;2.67;;
37529;SDS011;23374;52.758;6.872;2023-03-01T09:43:55;5.13;;;2.60;;
37529;SDS011;23374;52.758;6.872;2023-03-01T09:46:19;4.30;;;2.93;;
37529;SDS011;23374;52.758;6.872;2023-03-01T09:49:04;7.90;;;2.70;;
37529;SDS011;23374;52.758;6.872;2023-03-01T09:51:33;9.90;;;3.30;;
37529;SDS011;23374;52.758;6.872;2023-03-01T09:53:58;6.47;;;2.47;;
37529;SDS011;23374;52.758;6.872;2023-03-01T09:56:27;3.53;;;2.20;;
37529;SDS011;23374;52.758;6.872;2023-03-01T09:59:06;3.83;;;2.37;;
37529;SDS011;23374;52.758;6.872;2023-03-01T10:04:49;5.40;;;2.77;;
37529;SDS011;23374;52.758;6.872;2023-03-01T10:12:15;7.07;;;1.67;;
37529;SDS011;23374;52.758;6.872;2023-03-01T10:15:44;4.23;;;2.40;;
37529;SDS011;23374;52.758;6.872;2023-03-01T10:18:19;3.80;;;2.10;;
37529;SDS011;23374;52.758;6.872;2023-03-01T10:20:53;4.47;;;2.63;;
37529;SDS011;23374;52.758;6.872;2023-03-01T10:23:22;3.07;;;2.07;;
37529;SDS011;23374;52.758;6.872;2023-03-01T10:26:22;3.87;;;1.90;;
37529;SDS011;23374;52.758;6.872;2023-03-01T10:30:39;4.90;;;2.00;;
37529;SDS011;23374;52.758;6.872;2023-03-01T10:33:04;5.87;;;2.83;;
37529;SDS011;23374;52.758;6.872;2023-03-01T10:35:35;3.03;;;1.63;;
37529;SDS011;23374;52.758;6.872;2023-03-01T10:38:07;3.77;;;2.20;;
37529;SDS011;23374;52.758;6.872;2023-03-01T10:40:34;2.33;;;1.70;;
37529;SDS011;23374;52.758;6.872;2023-03-01T10:42:57;3.87;;;2.30;;
37529;SDS011;23374;52.758;6.872;2023-03-01T10:45:40;3.00;;;2.03;;
37529;SDS011;23374;52.758;6.872;2023-03-01T10:48:22;3.20;;;1.87;;
37529;SDS011;23374;52.758;6.872;2023-03-01T10:50:51;3.57;;;2.17;;
37529;SDS011;23374;52.758;6.872;2023-03-01T10:53:42;2.67;;;1.63;;
37529;SDS011;23374;52.758;6.872;2023-03-01T10:56:10;4.50;;;2.27;;
37529;SDS011;23374;52.758;6.872;2023-03-01T10:58:36;4.40;;;2.30;;
37529;SDS011;23374;52.758;6.872;2023-03-01T11:01:02;3.03;;;1.50;;
37529;SDS011;23374;52.758;6.872;2023-03-01T11:06:34;5.50;;;2.97;;
37529;SDS011;23374;52.758;6.872;2023-03-01T11:08:56;5.50;;;2.60;;
37529;SDS011;23374;52.758;6.872;2023-03-01T11:11:34;5.00;;;2.50;;
37529;SDS011;23374;52.758;6.872;2023-03-01T11:14:23;3.97;;;2.60;;
37529;SDS011;23374;52.758;6.872;2023-03-01T11:16:48;5.23;;;2.40;;
37529;SDS011;23374;52.758;6.872;2023-03-01T11:19:20;3.27;;;2.23;;
37529;SDS011;23374;52.758;6.872;2023-03-01T11:24:42;6.73;;;3.23;;
37529;SDS011;23374;52.758;6.872;2023-03-01T11:27:54;4.03;;;2.30;;
37529;SDS011;23374;52.758;6.872;2023-03-01T11:30:31;5.30;;;2.67;;
37529;SDS011;23374;52.758;6.872;2023-03-01T11:33:18;4.23;;;2.43;;
37529;SDS011;23374;52.758;6.872;2023-03-01T11:36:44;8.57;;;2.70;;
37529;SDS011;23374;52.758;6.872;2023-03-01T11:42:49;5.40;;;3.00;;
37529;SDS011;23374;52.758;6.872;2023-03-01T11:45:31;5.10;;;2.87;;
37529;SDS011;23374;52.758;6.872;2023-03-01T11:50:08;5.47;;;3.17;;
37529;SDS011;23374;52.758;6.872;2023-03-01T12:29:34;5.17;;;2.97;;
37529;SDS011;23374;52.758;6.872;2023-03-01T12:40:38;6.53;;;3.47;;
37529;SDS011;23374;52.758;6.872;2023-03-01T12:49:57;7.03;;;3.63;;
37529;SDS011;23374;52.758;6.872;2023-03-01T12:56:04;7.03;;;3.07;;
37529;SDS011;23374;52.758;6.872;2023-03-01T12:58:33;7.60;;;3.83;;
37529;SDS011;23374;52.758;6.872;2023-03-01T13:01:25;7.00;;;3.83;;
37529;SDS011;23374;52.758;6.872;2023-03-01T13:05:49;8.00;;;3.53;;
37529;SDS011;23374;52.758;6.872;2023-03-01T13:09:27;8.97;;;4.03;;
37529;SDS011;23374;52.758;6.872;2023-03-01T13:13:00;11.27;;;3.20;;
37529;SDS011;23374;52.758;6.872;2023-03-01T13:15:36;9.70;;;3.70;;
37529;SDS011;23374;52.758;6.872;2023-03-01T13:18:35;7.03;;;3.97;;
37529;SDS011;23374;52.758;6.872;2023-03-01T13:20:57;7.50;;;3.73;;
37529;SDS011;23374;52.758;6.872;2023-03-01T13:23:26;6.17;;;3.63;;
37529;SDS011;23374;52.758;6.872;2023-03-01T13:26:11;4.10;;;2.60;;
37529;SDS011;23374;52.758;6.872;2023-03-01T13:28:51;5.03;;;2.60;;
37529;SDS011;23374;52.758;6.872;2023-03-01T13:32:01;7.13;;;4.20;;
37529;SDS011;23374;52.758;6.872;2023-03-01T13:34:40;7.13;;;3.83;;
37529;SDS011;23374;52.758;6.872;2023-03-01T13:37:33;8.27;;;4.30;;
37529;SDS011;23374;52.758;6.872;2023-03-01T13:39:58;8.03;;;4.67;;
37529;SDS011;23374;52.758;6.872;2023-03-01T13:42:38;7.23;;;4.20;;
37529;SDS011;23374;52.758;6.872;2023-03-01T13:45:03;8.03;;;4.03;;
37529;SDS011;23374;52.758;6.872;2023-03-01T13:48:01;7.43;;;4.60;;
37529;SDS011;23374;52.758;6.872;2023-03-01T13:50:33;10.63;;;4.97;;
37529;SDS011;23374;52.758;6.872;2023-03-01T13:52:59;10.00;;;5.07;;
37529;SDS011;23374;52.758;6.872;2023-03-01T13:55:52;9.83;;;4.40;;
37529;SDS011;23374;52.758;6.872;2023-03-01T13:59:02;9.77;;;4.90;;
37529;SDS011;23374;52.758;6.872;2023-03-01T14:01:36;8.50;;;4.37;;
37529;SDS011;23374;52.758;6.872;2023-03-01T14:03:57;10.40;;;4.70;;
37529;SDS011;23374;52.758;6.872;2023-03-01T14:06:26;10.33;;;5.03;;
37529;SDS011;23374;52.758;6.872;2023-03-01T14:09:10;9.27;;;4.53;;
37529;SDS011;23374;52.758;6.872;2023-03-01T14:15:15;7.97;;;4.90;;
37529;SDS011;23374;52.758;6.872;2023-03-01T14:17:55;9.43;;;4.67;;
37529;SDS011;23374;52.758;6.872;2023-03-01T14:20:44;9.53;;;5.13;;
37529;SDS011;23374;52.758;6.872;2023-03-01T14:23:13;8.37;;;4.57;;
37529;SDS011;23374;52.758;6.872;2023-03-01T14:25:38;9.50;;;3.60;;
37529;SDS011;23374;52.758;6.872;2023-03-01T14:28:21;10.47;;;5.13;;
37529;SDS011;23374;52.758;6.872;2023-03-01T14:30:52;9.37;;;5.07;;
37529;SDS011;23374;52.758;6.872;2023-03-01T14:33:21;8.53;;;4.60;;
37529;SDS011;23374;52.758;6.872;2023-03-01T14:36:00;9.53;;;5.57;;
37529;SDS011;23374;52.758;6.872;2023-03-01T14:38:39;10.30;;;4.13;;
37529;SDS011;23374;52.758;6.872;2023-03-01T14:41:19;10.17;;;5.27;;
37529;SDS011;23374;52.758;6.872;2023-03-01T14:44:12;9.67;;;5.53;;
37529;SDS011;23374;52.758;6.872;2023-03-01T14:46:43;8.83;;;4.80;;
37529;SDS011;23374;52.758;6.872;2023-03-01T14:49:27;11.50;;;5.80;;
37529;SDS011;23374;52.758;6.872;2023-03-01T14:52:06;9.97;;;5.00;;
37529;SDS011;23374;52.758;6.872;2023-03-01T14:54:48;11.10;;;4.80;;
37529;SDS011;23374;52.758;6.872;2023-03-01T14:57:18;12.40;;;5.47;;
37529;SDS011;23374;52.758;6.872;2023-03-01T14:59:43;10.73;;;5.43;;
37529;SDS011;23374;52.758;6.872;2023-03-01T15:02:17;9.80;;;4.70;;
37529;SDS011;23374;52.758;6.872;2023-03-01T15:04:39;9.87;;;5.33;;
37529;SDS011;23374;52.758;6.872;2023-03-01T15:07:02;10.13;;;4.90;;
37529;SDS011;23374;52.758;6.872;2023-03-01T15:09:24;10.67;;;5.87;;
37529;SDS011;23374;52.758;6.872;2023-03-01T15:11:45;7.53;;;4.47;;
37529;SDS011;23374;52.758;6.872;2023-03-01T15:17:43;9.17;;;4.90;;
37529;SDS011;23374;52.758;6.872;2023-03-01T15:20:15;10.47;;;4.93;;
37529;SDS011;23374;52.758;6.872;2023-03-01T15:22:45;7.83;;;4.67;;
37529;SDS011;23374;52.758;6.872;2023-03-01T15:25:18;12.27;;;5.27;;
37529;SDS011;23374;52.758;6.872;2023-03-01T15:27:52;7.73;;;4.73;;
37529;SDS011;23374;52.758;6.872;2023-03-01T15:30:18;10.33;;;4.73;;
37529;SDS011;23374;52.758;6.872;2023-03-01T15:32:48;4.27;;;2.10;;
37529;SDS011;23374;52.758;6.872;2023-03-01T15:38:56;8.37;;;4.73;;
37529;SDS011;23374;52.758;6.872;2023-03-01T15:41:28;14.07;;;5.53;;
37529;SDS011;23374;52.758;6.872;2023-03-01T15:43:54;8.83;;;4.80;;
37529;SDS011;23374;52.758;6.872;2023-03-01T15:46:19;8.23;;;4.80;;
37529;SDS011;23374;52.758;6.872;2023-03-01T15:48:48;10.27;;;4.77;;
37529;SDS011;23374;52.758;6.872;2023-03-01T15:51:29;9.67;;;5.20;;
37529;SDS011;23374;52.758;6.872;2023-03-01T15:53:55;3.93;;;2.40;;
37529;SDS011;23374;52.758;6.872;2023-03-01T15:56:18;8.90;;;5.00;;
37529;SDS011;23374;52.758;6.872;2023-03-01T15:58:40;8.87;;;4.97;;
37529;SDS011;23374;52.758;6.872;2023-03-01T16:01:01;7.13;;;4.80;;
37529;SDS011;23374;52.758;6.872;2023-03-01T16:03:22;10.57;;;5.63;;
37529;SDS011;23374;52.758;6.872;2023-03-01T16:05:43;5.43;;;3.10;;
37529;SDS011;23374;52.758;6.872;2023-03-01T16:08:04;10.10;;;5.43;;
37529;SDS011;23374;52.758;6.872;2023-03-01T16:10:27;11.07;;;5.00;;
37529;SDS011;23374;52.758;6.872;2023-03-01T16:12:50;10.73;;;5.43;;
37529;SDS011;23374;52.758;6.872;2023-03-01T16:15:25;8.70;;;5.10;;
37529;SDS011;23374;52.758;6.872;2023-03-01T16:17:52;9.80;;;5.23;;
37529;SDS011;23374;52.758;6.872;2023-03-01T16:20:13;9.00;;;5.27;;